createdAt,value
2019-04-27T00:01:10.483Z,23.50
2019-04-27T00:03:54.015Z,24.10
2019-04-27T00:06:23.872Z,23.10
2019-04-27T00:08:56.765Z,23.53
2019-04-27T00:11:54.306Z,22.50
2019-04-27T00:14:24.000Z,22.53
2019-04-27T00:17:12.925Z,24.00
2019-04-27T00:19:55.717Z,23.90
2019-04-27T00:22:30.905Z,23.07
2019-04-27T00:25:00.233Z,24.83
2019-04-27T00:27:29.685Z,23.57
2019-04-27T00:29:59.072Z,24.60
2019-04-27T00:32:28.420Z,23.87
2019-04-27T00:34:58.034Z,23.43
2019-04-27T00:37:38.363Z,24.13
2019-04-27T00:40:14.872Z,24.47
2019-04-27T00:42:44.257Z,24.47
2019-04-27T00:45:15.058Z,23.27
2019-04-27T00:47:54.558Z,24.37
2019-04-27T00:50:15.696Z,23.77
2019-04-27T00:52:44.994Z,23.57
2019-04-27T00:55:14.369Z,23.77
2019-04-27T00:58:13.095Z,24.03
2019-04-27T01:01:07.411Z,23.17
2019-04-27T01:03:40.853Z,23.57
2019-04-27T01:06:10.238Z,23.83
2019-04-27T01:08:39.646Z,23.70
2019-04-27T01:11:08.957Z,24.07
2019-04-27T01:13:38.320Z,23.63
2019-04-27T01:16:08.614Z,24.47
2019-04-27T01:18:38.760Z,23.90
2019-04-27T01:21:09.224Z,23.87
2019-04-27T01:23:38.894Z,24.07
2019-04-27T01:26:30.037Z,23.90
2019-04-27T01:29:03.659Z,24.27
2019-04-27T01:31:33.011Z,24.13
2019-04-27T01:34:02.388Z,24.33
2019-04-27T01:36:31.761Z,24.40
2019-04-27T01:39:01.104Z,24.23
2019-04-27T01:41:30.463Z,24.37
2019-04-27T01:43:59.923Z,25.33
2019-04-27T01:46:29.653Z,24.80
2019-04-27T01:48:59.215Z,23.90
2019-04-27T01:51:29.435Z,25.80
2019-04-27T01:53:59.347Z,25.53
2019-04-27T01:56:29.439Z,25.47
2019-04-27T01:58:59.593Z,24.60
2019-04-27T02:01:40.556Z,25.17
2019-04-27T02:04:17.298Z,24.87
2019-04-27T02:06:48.781Z,23.80
2019-04-27T02:09:20.175Z,24.07
2019-04-27T02:11:49.844Z,23.07
2019-04-27T02:14:19.593Z,23.90
2019-04-27T02:16:49.382Z,23.30
2019-04-27T02:19:19.484Z,24.43
2019-04-27T02:21:51.298Z,24.53
2019-04-27T02:24:20.152Z,24.47
2019-04-27T02:26:49.782Z,24.33
2019-04-27T02:29:40.198Z,24.97
2019-04-27T02:32:29.132Z,24.53
2019-04-27T02:35:03.554Z,22.57
2019-04-27T02:37:33.385Z,24.40
2019-04-27T02:40:02.626Z,24.23
2019-04-27T02:42:43.493Z,23.90
2019-04-27T02:45:13.121Z,24.30
2019-04-27T02:47:42.459Z,23.70
2019-04-27T02:50:11.854Z,24.67
2019-04-27T02:52:47.285Z,24.23
2019-04-27T02:55:19.537Z,24.13
2019-04-27T02:57:49.928Z,24.07
2019-04-27T03:00:20.596Z,23.27
2019-04-27T03:02:55.299Z,24.30
2019-04-27T03:05:29.686Z,23.63
2019-04-27T03:07:59.668Z,23.63
2019-04-27T03:10:31.667Z,24.43
2019-04-27T03:13:26.844Z,23.77
2019-04-27T03:16:29.605Z,23.40
2019-04-27T03:19:18.787Z,23.67
2019-04-27T03:22:00.357Z,24.10
2019-04-27T03:24:49.718Z,23.90
2019-04-27T03:30:12.184Z,24.97
2019-04-27T03:32:42.864Z,24.80
2019-04-27T03:35:12.871Z,24.30
2019-04-27T03:37:43.146Z,25.07
2019-04-27T03:40:13.183Z,25.13
2019-04-27T03:42:44.807Z,24.20
2019-04-27T03:45:14.620Z,24.20
2019-04-27T03:47:44.299Z,23.60
2019-04-27T03:50:16.439Z,24.40
2019-04-27T03:52:59.839Z,24.03
2019-04-27T03:55:32.298Z,22.93
2019-04-27T03:58:12.094Z,22.90
2019-04-27T04:00:42.385Z,24.57
2019-04-27T04:03:11.795Z,23.30
2019-04-27T04:05:42.151Z,23.77
2019-04-27T04:08:11.670Z,23.13
2019-04-27T04:10:44.968Z,23.53
2019-04-27T04:13:20.464Z,22.93
2019-04-27T04:16:12.581Z,22.57
2019-04-27T04:19:00.761Z,22.53
2019-04-27T04:21:30.768Z,21.83
2019-04-27T04:24:01.117Z,22.37
2019-04-27T04:26:32.733Z,23.83
2019-04-27T04:29:02.201Z,22.60
2019-04-27T04:31:33.159Z,23.07
2019-04-27T04:34:02.672Z,23.93
2019-04-27T04:36:32.100Z,23.70
2019-04-27T04:39:01.559Z,22.77
2019-04-27T04:42:10.156Z,23.13
2019-04-27T04:45:00.368Z,21.73
2019-04-27T04:47:54.100Z,22.80
2019-04-27T04:50:23.408Z,21.87
2019-04-27T04:52:52.807Z,22.47
2019-04-27T04:55:22.128Z,21.23
2019-04-27T04:57:51.532Z,20.57
2019-04-27T05:00:20.891Z,22.00
2019-04-27T05:02:50.287Z,20.87
2019-04-27T05:05:19.626Z,21.07
2019-04-27T05:07:48.997Z,21.30
2019-04-27T05:10:18.832Z,21.53
2019-04-27T05:12:49.051Z,20.20
2019-04-27T05:15:20.741Z,20.10
2019-04-27T05:17:51.108Z,19.13
2019-04-27T05:20:41.414Z,18.53
2019-04-27T05:23:10.765Z,19.07
2019-04-27T05:25:40.238Z,19.10
2019-04-27T05:28:09.907Z,19.30
2019-04-27T05:30:39.363Z,18.27
2019-04-27T05:33:09.044Z,18.13
2019-04-27T05:35:40.957Z,18.37
2019-04-27T05:38:13.089Z,16.77
2019-04-27T05:40:40.984Z,16.77
2019-04-27T05:43:12.620Z,17.23
2019-04-27T05:46:44.560Z,16.67
2019-04-27T05:49:24.485Z,16.40
2019-04-27T05:51:53.864Z,16.27
2019-04-27T05:54:23.490Z,15.67
2019-04-27T05:56:53.216Z,14.77
2019-04-27T05:59:22.946Z,15.47
2019-04-27T06:01:52.984Z,14.77
2019-04-27T06:04:22.746Z,14.77
2019-04-27T06:06:52.272Z,14.67
2019-04-27T06:09:21.831Z,14.00
2019-04-27T06:11:51.396Z,14.10
2019-04-27T06:14:21.216Z,13.20
2019-04-27T06:16:51.261Z,13.50
2019-04-27T06:19:21.280Z,13.40
2019-04-27T06:21:50.767Z,13.67
2019-04-27T06:24:20.395Z,13.60
2019-04-27T06:26:50.015Z,13.53
2019-04-27T06:29:19.714Z,12.73
2019-04-27T06:31:49.715Z,11.97
2019-04-27T06:34:19.499Z,12.20
2019-04-27T06:36:48.932Z,12.17
2019-04-27T06:39:20.230Z,12.37
2019-04-27T06:41:49.374Z,11.77
2019-04-27T06:44:19.639Z,11.73
2019-04-27T06:46:49.169Z,11.23
2019-04-27T06:49:19.509Z,10.83
2019-04-27T06:51:49.785Z,11.27
2019-04-27T06:54:21.219Z,10.27
2019-04-27T06:56:50.883Z,10.53
2019-04-27T06:59:20.271Z,11.03
2019-04-27T07:01:49.634Z,11.50
2019-04-27T07:04:19.576Z,11.40
2019-04-27T07:06:54.154Z,10.47
2019-04-27T07:09:20.168Z,10.80
2019-04-27T07:11:49.673Z,11.00
2019-04-27T07:14:19.729Z,10.33
2019-04-27T07:16:50.782Z,10.30
2019-04-27T07:19:20.503Z,10.50
2019-04-27T07:21:49.942Z,11.03
2019-04-27T07:24:19.684Z,10.97
2019-04-27T07:26:49.342Z,9.40
2019-04-27T07:29:19.600Z,9.53
2019-04-27T07:31:49.722Z,9.17
2019-04-27T07:34:19.728Z,10.27
2019-04-27T07:36:49.313Z,10.27
2019-04-27T07:39:19.378Z,10.20
2019-04-27T07:41:49.969Z,9.10
2019-04-27T07:44:39.087Z,9.00
2019-04-27T07:47:17.282Z,9.43
2019-04-27T07:49:46.769Z,8.87
2019-04-27T07:52:16.548Z,8.00
2019-04-27T07:54:46.289Z,8.50
2019-04-27T07:57:15.752Z,8.43
2019-04-27T07:59:45.426Z,8.40
2019-04-27T08:02:14.853Z,7.63
2019-04-27T08:04:44.195Z,7.53
2019-04-27T08:07:13.558Z,7.07
2019-04-27T08:09:43.013Z,7.43
2019-04-27T08:12:12.421Z,7.90
2019-04-27T08:14:41.847Z,6.70
2019-04-27T08:17:11.271Z,7.37
2019-04-27T08:19:41.006Z,6.97
2019-04-27T08:22:10.482Z,6.90
2019-04-27T08:24:40.176Z,7.27
2019-04-27T08:27:29.313Z,6.30
2019-04-27T08:30:12.654Z,7.20
2019-04-27T08:32:44.298Z,7.07
2019-04-27T08:35:14.159Z,7.43
2019-04-27T08:37:44.036Z,7.07
2019-04-27T08:40:14.075Z,6.83
2019-04-27T08:42:43.492Z,6.70
2019-04-27T08:45:13.399Z,6.73
2019-04-27T08:47:42.802Z,6.50
2019-04-27T08:50:12.298Z,6.80
2019-04-27T08:53:00.856Z,4.93
2019-04-27T08:55:30.476Z,4.40
2019-04-27T08:57:59.819Z,4.80
2019-04-27T09:00:29.230Z,4.63
2019-04-27T09:02:59.524Z,4.73
2019-04-27T09:05:29.166Z,5.00
2019-04-27T09:08:18.983Z,5.03
2019-04-27T09:10:58.896Z,5.77
2019-04-27T09:14:02.424Z,5.77
2019-04-27T09:16:40.038Z,5.60
2019-04-27T09:19:16.692Z,5.30
2019-04-27T09:22:13.378Z,5.03
2019-04-27T09:24:37.156Z,6.07
2019-04-27T09:27:06.999Z,5.30
2019-04-27T09:29:36.678Z,4.70
2019-04-27T09:32:06.521Z,5.00
2019-04-27T09:34:36.627Z,5.00
2019-04-27T09:37:06.189Z,4.73
2019-04-27T09:39:35.929Z,5.30
2019-04-27T09:42:06.480Z,5.07
2019-04-27T09:44:37.125Z,5.00
2019-04-27T09:47:06.850Z,4.83
2019-04-27T09:49:36.706Z,5.30
2019-04-27T09:52:07.283Z,4.80
2019-04-27T09:54:36.767Z,5.00
2019-04-27T09:57:07.027Z,4.67
2019-04-27T09:59:39.337Z,4.40
2019-04-27T10:02:08.757Z,3.77
2019-04-27T10:04:38.291Z,4.07
2019-04-27T10:07:07.705Z,3.30
2019-04-27T10:09:37.016Z,4.10
2019-04-27T10:12:07.438Z,3.80
2019-04-27T10:14:37.302Z,4.20
2019-04-27T10:17:06.904Z,3.97
2019-04-27T10:19:36.719Z,4.37
2019-04-27T10:22:06.684Z,4.53
2019-04-27T10:24:36.367Z,4.20
2019-04-27T10:27:07.995Z,4.63
2019-04-27T10:29:37.643Z,4.33
2019-04-27T10:32:07.126Z,4.20
2019-04-27T10:34:36.492Z,3.33
2019-04-27T10:37:06.250Z,3.00
2019-04-27T10:39:36.147Z,2.90
2019-04-27T10:42:06.797Z,3.20
2019-04-27T10:44:37.159Z,3.10
2019-04-27T10:47:06.845Z,3.33
2019-04-27T10:49:36.412Z,3.33
2019-04-27T10:52:06.082Z,3.67
2019-04-27T10:54:35.475Z,3.50
2019-04-27T10:57:06.111Z,3.60
2019-04-27T10:59:36.155Z,4.60
2019-04-27T11:02:06.420Z,3.77
2019-04-27T11:05:01.025Z,3.70
2019-04-27T11:07:33.831Z,3.70
2019-04-27T11:10:05.601Z,3.67
2019-04-27T11:12:34.872Z,3.87
2019-04-27T11:15:05.896Z,4.03
2019-04-27T11:17:37.137Z,3.97
2019-04-27T11:20:07.678Z,4.10
2019-04-27T11:22:37.373Z,4.80
2019-04-27T11:25:07.398Z,4.80
2019-04-27T11:27:36.732Z,4.80
2019-04-27T11:30:07.808Z,5.37
2019-04-27T11:32:37.502Z,5.90
2019-04-27T11:35:32.244Z,5.90
2019-04-27T11:38:01.958Z,6.57
2019-04-27T11:40:31.362Z,6.53
2019-04-27T11:43:00.738Z,6.70
2019-04-27T11:45:30.120Z,7.53
2019-04-27T11:47:59.499Z,7.10
2019-04-27T11:50:28.938Z,7.60
2019-04-27T11:52:58.234Z,7.87
2019-04-27T11:55:27.583Z,7.30
2019-04-27T11:57:57.226Z,7.33
2019-04-27T12:00:27.825Z,7.23
2019-04-27T12:02:57.210Z,7.10
2019-04-27T12:05:26.849Z,7.00
2019-04-27T12:07:56.246Z,7.30
2019-04-27T12:10:26.237Z,7.80
2019-04-27T12:12:56.349Z,8.33
2019-04-27T12:15:46.489Z,8.57
2019-04-27T12:18:16.015Z,8.70
2019-04-27T12:20:45.824Z,9.03
2019-04-27T12:23:16.512Z,8.73
2019-04-27T12:25:46.226Z,9.40
2019-04-27T12:28:30.700Z,9.70
2019-04-27T12:31:10.334Z,9.57
2019-04-27T12:33:39.772Z,9.77
2019-04-27T12:36:09.662Z,9.70
2019-04-27T12:38:39.058Z,9.37
2019-04-27T12:41:08.358Z,9.80
2019-04-27T12:43:37.698Z,9.63
2019-04-27T12:46:07.602Z,9.73
2019-04-27T12:48:37.528Z,10.70
2019-04-27T12:51:07.183Z,11.27
2019-04-27T12:53:52.785Z,11.23
2019-04-27T12:56:38.917Z,11.00
2019-04-27T12:59:19.801Z,11.40
2019-04-27T13:01:49.098Z,11.50
2019-04-27T13:04:18.444Z,12.40
2019-04-27T13:06:47.959Z,12.40
2019-04-27T13:09:17.745Z,12.57
2019-04-27T13:11:47.107Z,11.90
2019-04-27T13:14:16.545Z,8.87
2019-04-27T13:16:47.464Z,8.90
2019-04-27T13:19:17.498Z,2.60
2019-04-27T13:21:47.222Z,2.40
2019-04-27T13:24:16.630Z,1.50
2019-04-27T13:26:45.936Z,1.57
2019-04-27T13:29:16.687Z,1.50
2019-04-27T13:31:46.585Z,1.33
2019-04-27T13:34:16.031Z,1.20
2019-04-27T13:36:45.785Z,1.07
2019-04-27T13:39:15.799Z,1.43
2019-04-27T13:41:46.265Z,0.70
2019-04-27T13:44:16.075Z,1.03
2019-04-27T13:47:03.415Z,1.60
2019-04-27T13:49:42.064Z,1.40
2019-04-27T13:52:13.966Z,1.00
2019-04-27T13:54:43.250Z,1.20
2019-04-27T13:57:12.598Z,1.10
2019-04-27T13:59:41.964Z,1.30
2019-04-27T14:02:11.332Z,1.37
2019-04-27T14:04:40.684Z,1.37
2019-04-27T14:07:10.227Z,1.10
2019-04-27T14:09:39.926Z,1.67
2019-04-27T14:12:16.290Z,1.57
2019-04-27T14:14:45.614Z,1.43
2019-04-27T14:17:15.099Z,1.80
2019-04-27T14:19:44.468Z,1.67
2019-04-27T14:22:13.766Z,2.17
2019-04-27T14:24:43.460Z,2.20
2019-04-27T14:27:12.760Z,2.20
2019-04-27T14:29:42.142Z,2.00
2019-04-27T14:32:11.766Z,2.23
2019-04-27T14:34:41.515Z,2.13
2019-04-27T14:37:10.890Z,2.17
2019-04-27T14:39:40.282Z,2.00
2019-04-27T14:42:09.847Z,2.00
2019-04-27T14:44:39.140Z,2.80
2019-04-27T14:47:08.553Z,2.70
2019-04-27T14:49:39.087Z,2.50
2019-04-27T14:52:09.591Z,2.50
2019-04-27T14:54:47.309Z,2.63
2019-04-27T14:57:10.135Z,2.87
2019-04-27T14:59:39.504Z,3.43
2019-04-27T15:02:08.870Z,2.60
2019-04-27T15:04:40.227Z,2.70
2019-04-27T15:07:10.919Z,2.60
2019-04-27T15:09:40.274Z,3.30
2019-04-27T15:12:09.734Z,2.53
2019-04-27T15:14:39.764Z,2.60
2019-04-27T15:17:10.393Z,2.83
2019-04-27T15:19:48.450Z,2.93
2019-04-27T15:22:23.529Z,2.57
2019-04-27T15:25:06.480Z,2.47
2019-04-27T15:27:30.848Z,2.20
2019-04-27T15:30:04.421Z,2.53
2019-04-27T15:32:43.136Z,2.87
2019-04-27T15:35:23.573Z,2.80
2019-04-27T15:37:57.801Z,2.93
2019-04-27T15:40:50.008Z,2.70
2019-04-27T15:43:30.801Z,2.43
2019-04-27T15:45:58.749Z,3.07
2019-04-27T15:48:30.508Z,2.67
2019-04-27T15:51:03.042Z,2.83
2019-04-27T15:53:30.843Z,2.30
2019-04-27T15:56:01.714Z,2.67
2019-04-27T15:58:31.276Z,2.80
2019-04-27T16:01:05.640Z,2.43
2019-04-27T16:03:52.157Z,2.47
2019-04-27T16:06:21.712Z,2.33
2019-04-27T16:08:51.142Z,2.40
2019-04-27T16:11:20.551Z,2.53
2019-04-27T16:13:49.982Z,2.63
2019-04-27T16:16:19.982Z,1.90
2019-04-27T16:18:49.402Z,1.90
2019-04-27T16:21:20.049Z,1.90
2019-04-27T16:23:50.073Z,1.90
2019-04-27T16:26:19.425Z,2.10
2019-04-27T16:28:53.123Z,2.33
2019-04-27T16:31:20.524Z,2.30
2019-04-27T16:33:54.093Z,2.27
2019-04-27T16:36:21.315Z,2.43
2019-04-27T16:38:56.390Z,2.43
2019-04-27T16:41:28.007Z,2.30
2019-04-27T16:43:58.150Z,1.97
2019-04-27T16:46:28.512Z,2.67
2019-04-27T16:48:59.507Z,2.63
2019-04-27T16:51:29.718Z,2.30
2019-04-27T16:54:00.334Z,2.43
2019-04-27T16:56:29.910Z,3.20
2019-04-27T16:59:11.469Z,3.07
2019-04-27T17:01:31.298Z,2.57
2019-04-27T17:04:00.666Z,3.03
2019-04-27T17:06:30.996Z,3.13
2019-04-27T17:09:05.454Z,2.83
2019-04-27T17:11:31.562Z,2.70
2019-04-27T17:14:11.113Z,2.67
2019-04-27T17:17:11.913Z,2.60
2019-04-27T17:19:43.946Z,3.47
2019-04-27T17:22:14.711Z,2.83
2019-04-27T17:24:47.403Z,2.83
2019-04-27T17:27:22.019Z,3.10
2019-04-27T17:29:57.424Z,3.00
2019-04-27T17:32:33.500Z,3.07
2019-04-27T17:35:04.996Z,3.17
2019-04-27T17:37:33.745Z,3.40
2019-04-27T17:40:04.571Z,3.60
2019-04-27T17:42:33.886Z,3.37
2019-04-27T17:45:03.293Z,3.23
2019-04-27T17:47:32.674Z,3.10
2019-04-27T17:50:02.137Z,3.20
2019-04-27T17:52:31.497Z,3.60
2019-04-27T17:55:00.902Z,3.73
2019-04-27T17:57:30.480Z,3.80
2019-04-27T18:00:03.089Z,2.40
2019-04-27T18:02:33.760Z,2.60
2019-04-27T18:05:02.567Z,2.20
2019-04-27T18:07:34.974Z,2.37
2019-04-27T18:10:03.499Z,2.40
2019-04-27T18:12:33.290Z,2.40
2019-04-27T18:15:02.681Z,2.57
2019-04-27T18:17:32.657Z,2.57
2019-04-27T18:20:04.995Z,2.37
2019-04-27T18:22:39.655Z,2.60
2019-04-27T18:25:10.089Z,2.20
2019-04-27T18:28:01.651Z,2.33
2019-04-27T18:30:50.702Z,2.20
2019-04-27T18:33:20.088Z,2.67
2019-04-27T18:35:50.843Z,2.40
2019-04-27T18:38:20.166Z,2.10
2019-04-27T18:40:49.558Z,1.83
2019-04-27T18:43:18.861Z,1.80
2019-04-27T18:45:48.673Z,1.90
2019-04-27T18:48:24.553Z,2.20
2019-04-27T18:51:15.417Z,1.90
2019-04-27T18:53:44.848Z,2.10
2019-04-27T18:56:14.162Z,1.83
2019-04-27T18:58:43.986Z,1.90
2019-04-27T19:01:13.336Z,2.47
2019-04-27T19:03:42.838Z,2.50
2019-04-27T19:06:12.352Z,2.73
2019-04-27T19:08:42.099Z,2.50
2019-04-27T19:11:11.480Z,2.23
2019-04-27T19:13:41.268Z,2.10
2019-04-27T19:16:10.770Z,1.90
2019-04-27T19:18:40.191Z,2.50
2019-04-27T19:21:09.643Z,2.33
2019-04-27T19:23:40.212Z,2.67
2019-04-27T19:26:20.538Z,2.40
2019-04-27T19:29:11.676Z,2.50
2019-04-27T19:31:45.805Z,4.40
2019-04-27T19:34:15.186Z,3.63
2019-04-27T19:36:44.503Z,4.00
2019-04-27T19:39:14.652Z,4.20
2019-04-27T19:41:56.801Z,4.70
2019-04-27T19:44:15.206Z,3.83
2019-04-27T19:46:44.636Z,3.80
2019-04-27T19:49:13.968Z,3.17
2019-04-27T19:51:43.306Z,4.67
2019-04-27T19:54:12.667Z,3.50
2019-04-27T19:56:42.005Z,3.63
2019-04-27T19:59:18.782Z,4.00
2019-04-27T20:01:49.519Z,4.77
2019-04-27T20:04:30.805Z,4.47
2019-04-27T20:07:00.240Z,4.67
2019-04-27T20:09:38.491Z,4.17
2019-04-27T20:12:10.308Z,4.27
2019-04-27T20:14:57.813Z,4.00
2019-04-27T20:17:31.807Z,4.23
2019-04-27T20:20:02.119Z,3.30
2019-04-27T20:22:31.864Z,4.03
2019-04-27T20:25:02.078Z,3.50
2019-04-27T20:27:45.236Z,3.90
2019-04-27T20:30:03.536Z,4.67
2019-04-27T20:32:32.982Z,4.40
2019-04-27T20:35:02.366Z,4.30
2019-04-27T20:37:31.881Z,4.97
2019-04-27T20:40:01.839Z,4.60
2019-04-27T20:42:31.741Z,4.67
2019-04-27T20:45:01.976Z,4.90
2019-04-27T20:47:32.751Z,5.00
2019-04-27T20:50:02.132Z,5.50
2019-04-27T20:52:53.155Z,5.60
2019-04-27T20:55:22.764Z,5.60
2019-04-27T20:58:01.030Z,6.00
2019-04-27T21:00:23.969Z,5.47
2019-04-27T21:03:01.819Z,5.00
2019-04-27T21:05:51.103Z,5.07
2019-04-27T21:08:21.613Z,5.30
2019-04-27T21:10:51.525Z,5.27
2019-04-27T21:13:21.135Z,5.10
2019-04-27T21:15:50.966Z,5.63
2019-04-27T21:18:21.713Z,6.00
2019-04-27T21:20:51.381Z,5.57
2019-04-27T21:23:21.035Z,5.97
2019-04-27T21:25:53.037Z,5.60
2019-04-27T21:28:21.573Z,5.23
2019-04-27T21:30:50.953Z,6.00
2019-04-27T21:33:21.561Z,5.70
2019-04-27T21:35:51.301Z,5.50
2019-04-27T21:38:20.713Z,5.30
2019-04-27T21:40:50.118Z,5.23
2019-04-27T21:43:22.586Z,5.00
2019-04-27T21:45:51.945Z,5.27
2019-04-27T21:48:21.380Z,5.80
2019-04-27T21:50:51.793Z,5.20
2019-04-27T21:53:46.194Z,5.10
2019-04-27T21:56:15.524Z,5.20
2019-04-27T21:58:44.823Z,4.57
2019-04-27T22:01:29.238Z,5.00
2019-04-27T22:03:58.763Z,5.40
2019-04-27T22:06:28.332Z,5.30
2019-04-27T22:08:57.838Z,5.63
2019-04-27T22:11:27.231Z,4.53
2019-04-27T22:13:56.594Z,5.03
2019-04-27T22:16:26.269Z,5.23
2019-04-27T22:18:55.947Z,5.27
2019-04-27T22:21:25.185Z,5.60
2019-04-27T22:24:00.934Z,4.17
2019-04-27T22:26:31.490Z,5.50
2019-04-27T22:29:01.696Z,4.43
2019-04-27T22:31:31.394Z,4.43
2019-04-27T22:34:01.799Z,5.00
2019-04-27T22:36:31.253Z,5.10
2019-04-27T22:39:05.639Z,5.20
2019-04-27T22:41:52.481Z,5.23
2019-04-27T22:44:46.971Z,5.07
2019-04-27T22:47:16.241Z,4.47
2019-04-27T22:49:45.580Z,4.83
2019-04-27T22:52:14.896Z,4.70
2019-04-27T22:54:44.221Z,5.30
2019-04-27T22:57:23.314Z,4.47
2019-04-27T23:00:03.761Z,4.87
2019-04-27T23:02:46.443Z,4.83
2019-04-27T23:05:15.854Z,4.07
2019-04-27T23:07:45.239Z,4.50
2019-04-27T23:10:15.045Z,4.50
2019-04-27T23:12:44.377Z,4.63
2019-04-27T23:15:18.186Z,4.30
2019-04-27T23:18:05.522Z,4.50
2019-04-27T23:20:34.892Z,4.23
2019-04-27T23:23:04.194Z,4.67
2019-04-27T23:25:33.559Z,4.50
2019-04-27T23:28:02.963Z,4.40
2019-04-27T23:31:10.899Z,4.63
2019-04-27T23:33:43.082Z,4.50
2019-04-27T23:36:13.240Z,4.20
2019-04-27T23:38:42.975Z,3.97
2019-04-27T23:41:12.249Z,4.13
2019-04-27T23:43:41.631Z,4.50
2019-04-27T23:46:11.635Z,4.47
2019-04-27T23:48:42.039Z,4.57
2019-04-27T23:51:39.773Z,4.53
2019-04-27T23:54:09.496Z,4.37
2019-04-27T23:56:38.909Z,4.40
2019-04-27T23:59:08.250Z,4.57
